createdAt,value
2018-08-16T00:02:00.067Z,15.96
2018-08-16T00:04:31.033Z,15.94
2018-08-16T00:06:59.980Z,15.92
2018-08-16T00:09:29.019Z,15.86
2018-08-16T00:11:58.749Z,15.78
2018-08-16T00:14:27.609Z,15.76
2018-08-16T00:16:56.512Z,15.70
2018-08-16T00:19:28.110Z,15.62
2018-08-16T00:21:56.984Z,15.56
2018-08-16T00:24:25.862Z,15.52
2018-08-16T00:26:54.784Z,15.51
2018-08-16T00:29:23.994Z,15.52
2018-08-16T00:31:52.999Z,15.55
2018-08-16T00:34:21.917Z,15.52
2018-08-16T00:36:50.810Z,15.48
2018-08-16T00:39:19.679Z,15.39
2018-08-16T00:41:48.632Z,15.32
2018-08-16T00:44:17.429Z,15.23
2018-08-16T00:46:46.474Z,15.18
2018-08-16T00:49:16.491Z,15.13
2018-08-16T00:51:45.388Z,15.10
2018-08-16T00:54:14.269Z,15.06
2018-08-16T00:56:43.669Z,15.03
2018-08-16T00:59:13.600Z,15.01
2018-08-16T01:01:42.350Z,14.99
2018-08-16T01:04:11.221Z,14.97
2018-08-16T01:06:40.024Z,14.98
2018-08-16T01:09:10.254Z,14.99
2018-08-16T01:11:38.974Z,14.97
2018-08-16T01:14:08.961Z,14.93
2018-08-16T01:16:37.704Z,14.89
2018-08-16T01:19:06.555Z,14.88
2018-08-16T01:21:35.325Z,14.89
2018-08-16T01:24:04.320Z,14.87
2018-08-16T01:26:33.098Z,14.83
2018-08-16T01:29:02.095Z,14.80
2018-08-16T01:31:30.925Z,14.78
2018-08-16T01:33:59.816Z,14.80
2018-08-16T01:36:28.719Z,14.86
2018-08-16T01:38:57.649Z,14.89
2018-08-16T01:41:26.574Z,14.87
2018-08-16T01:43:55.420Z,14.88
2018-08-16T01:46:24.344Z,14.85
2018-08-16T01:48:53.370Z,14.86
2018-08-16T01:51:22.108Z,14.93
2018-08-16T01:53:50.950Z,14.98
2018-08-16T01:56:19.746Z,14.96
2018-08-16T01:58:48.515Z,14.92
2018-08-16T02:01:17.542Z,14.94
2018-08-16T02:03:46.414Z,14.97
2018-08-16T02:06:15.203Z,14.99
2018-08-16T02:08:44.047Z,15.00
2018-08-16T02:11:12.906Z,14.95
2018-08-16T02:13:41.891Z,14.91
2018-08-16T02:16:10.606Z,14.89
2018-08-16T02:18:39.341Z,14.86
2018-08-16T02:21:08.299Z,14.81
2018-08-16T02:23:37.114Z,14.80
2018-08-16T02:26:06.182Z,14.78
2018-08-16T02:28:34.965Z,14.80
2018-08-16T02:31:03.783Z,14.85
2018-08-16T02:33:32.598Z,14.82
2018-08-16T02:36:01.499Z,14.83
2018-08-16T02:38:30.311Z,14.83
2018-08-16T02:40:59.086Z,14.79
2018-08-16T02:43:27.951Z,14.75
2018-08-16T02:45:56.875Z,14.71
2018-08-16T02:48:25.837Z,14.66
2018-08-16T02:50:54.698Z,14.64
2018-08-16T02:53:23.436Z,14.62
2018-08-16T02:55:52.480Z,14.60
2018-08-16T02:58:21.227Z,14.58
2018-08-16T03:00:49.963Z,14.57
2018-08-16T03:03:18.783Z,14.57
2018-08-16T03:05:47.686Z,14.56
2018-08-16T03:08:16.539Z,14.53
2018-08-16T03:10:45.384Z,14.54
2018-08-16T03:13:14.154Z,14.52
2018-08-16T03:15:43.029Z,14.50
2018-08-16T03:18:11.967Z,14.46
2018-08-16T03:20:40.866Z,14.45
2018-08-16T03:23:09.616Z,14.42
2018-08-16T03:25:38.726Z,14.43
2018-08-16T03:28:07.509Z,14.42
2018-08-16T03:30:36.534Z,14.37
2018-08-16T03:33:05.444Z,14.35
2018-08-16T03:35:34.214Z,14.31
2018-08-16T03:38:04.070Z,14.29
2018-08-16T03:40:32.949Z,14.27
2018-08-16T03:43:01.790Z,14.23
2018-08-16T03:45:30.909Z,14.22
2018-08-16T03:47:59.904Z,14.21
2018-08-16T03:50:28.914Z,14.18
2018-08-16T03:52:57.686Z,14.18
2018-08-16T03:55:26.511Z,14.18
2018-08-16T03:57:55.206Z,14.21
2018-08-16T04:00:24.134Z,14.18
2018-08-16T04:02:53.058Z,14.16
2018-08-16T04:05:22.002Z,14.15
2018-08-16T04:07:50.844Z,14.16
2018-08-16T04:10:19.739Z,14.17
2018-08-16T04:12:48.625Z,14.17
2018-08-16T04:15:17.674Z,14.18
2018-08-16T04:17:46.474Z,14.20
2018-08-16T04:20:15.391Z,14.19
2018-08-16T04:22:44.291Z,14.17
2018-08-16T04:25:13.186Z,14.19
2018-08-16T04:27:42.028Z,14.22
2018-08-16T04:30:10.804Z,14.26
2018-08-16T04:32:39.645Z,14.32
2018-08-16T04:35:08.554Z,14.33
2018-08-16T04:37:37.412Z,14.33
2018-08-16T04:40:06.402Z,14.34
2018-08-16T04:42:35.379Z,14.40
2018-08-16T04:45:05.057Z,14.48
2018-08-16T04:47:33.889Z,14.58
2018-08-16T04:50:02.743Z,14.72
2018-08-16T04:52:31.606Z,14.86
2018-08-16T04:55:00.486Z,14.99
2018-08-16T04:57:29.432Z,15.06
2018-08-16T04:59:58.289Z,15.12
2018-08-16T05:02:27.259Z,15.18
2018-08-16T05:04:56.123Z,15.28
2018-08-16T05:07:25.219Z,15.34
2018-08-16T05:09:54.221Z,15.39
2018-08-16T05:12:23.129Z,15.50
2018-08-16T05:14:52.014Z,15.64
2018-08-16T05:17:20.991Z,15.73
2018-08-16T05:19:49.851Z,15.78
2018-08-16T05:22:18.713Z,15.85
2018-08-16T05:24:47.530Z,15.90
2018-08-16T05:27:16.313Z,15.96
2018-08-16T05:29:45.082Z,16.04
2018-08-16T05:32:14.069Z,16.12
2018-08-16T05:34:43.089Z,16.20
2018-08-16T05:37:11.898Z,16.22
2018-08-16T05:39:40.722Z,16.28
2018-08-16T05:42:09.758Z,16.33
2018-08-16T05:44:38.688Z,16.42
2018-08-16T05:47:07.738Z,16.50
2018-08-16T05:49:36.604Z,16.63
2018-08-16T05:52:05.597Z,16.73
2018-08-16T05:54:34.418Z,16.91
2018-08-16T05:57:03.369Z,17.15
2018-08-16T05:59:32.237Z,17.50
2018-08-16T06:02:01.163Z,17.94
2018-08-16T06:04:30.055Z,18.36
2018-08-16T06:06:59.049Z,18.72
2018-08-16T06:09:28.031Z,18.94
2018-08-16T06:11:56.904Z,19.14
2018-08-16T06:14:25.823Z,19.30
2018-08-16T06:16:54.774Z,19.56
2018-08-16T06:19:23.680Z,19.77
2018-08-16T06:21:52.535Z,19.77
2018-08-16T06:24:21.449Z,20.00
2018-08-16T06:26:50.289Z,20.00
2018-08-16T06:29:19.147Z,20.22
2018-08-16T06:31:48.115Z,20.28
2018-08-16T06:34:16.951Z,20.24
2018-08-16T06:36:45.795Z,20.26
2018-08-16T06:39:15.670Z,20.10
2018-08-16T06:41:44.732Z,20.22
2018-08-16T06:44:13.584Z,20.33
2018-08-16T06:46:42.545Z,20.75
2018-08-16T06:49:11.448Z,21.13
2018-08-16T06:51:40.511Z,21.44
2018-08-16T06:54:09.381Z,21.65
2018-08-16T06:56:38.380Z,21.82
2018-08-16T06:59:07.275Z,22.01
2018-08-16T07:01:36.171Z,22.01
2018-08-16T07:04:05.151Z,22.16
2018-08-16T07:06:34.118Z,22.37
2018-08-16T07:09:03.103Z,22.54
2018-08-16T07:11:32.239Z,22.67
2018-08-16T07:14:01.180Z,22.83
2018-08-16T07:16:30.061Z,22.98
2018-08-16T07:18:58.953Z,23.13
2018-08-16T07:21:28.224Z,23.10
2018-08-16T07:23:57.171Z,23.10
2018-08-16T07:26:27.340Z,23.14
2018-08-16T07:28:56.810Z,23.35
2018-08-16T07:31:25.796Z,23.50
2018-08-16T07:33:54.898Z,23.44
2018-08-16T07:36:23.844Z,23.46
2018-08-16T07:38:52.738Z,23.67
2018-08-16T07:41:21.734Z,23.84
2018-08-16T07:43:51.122Z,24.06
2018-08-16T07:46:20.173Z,24.17
2018-08-16T07:48:50.112Z,24.21
2018-08-16T07:51:19.150Z,24.33
2018-08-16T07:53:47.956Z,24.40
2018-08-16T07:56:18.263Z,24.48
2018-08-16T07:58:47.143Z,24.39
2018-08-16T08:01:15.986Z,24.22
2018-08-16T08:03:44.884Z,24.13
2018-08-16T08:06:15.784Z,24.10
2018-08-16T08:08:48.301Z,24.09
2018-08-16T08:11:17.708Z,24.14
2018-08-16T08:13:46.837Z,24.36
2018-08-16T08:16:15.903Z,24.30
2018-08-16T08:18:44.840Z,24.35
2018-08-16T08:21:13.697Z,24.28
2018-08-16T08:23:43.246Z,24.24
2018-08-16T08:26:12.215Z,24.12
2018-08-16T08:28:42.111Z,24.11
2018-08-16T08:31:10.911Z,24.09
2018-08-16T08:33:40.250Z,23.95
2018-08-16T08:36:20.073Z,23.66
2018-08-16T08:38:48.870Z,23.67
2018-08-16T08:41:17.778Z,23.79
2018-08-16T08:43:57.451Z,23.76
2018-08-16T08:46:26.306Z,23.77
2018-08-16T08:48:55.183Z,23.76
2018-08-16T08:51:23.998Z,23.83
2018-08-16T08:55:01.140Z,23.74
2018-08-16T08:57:40.744Z,23.34
2018-08-16T09:00:09.767Z,23.14
2018-08-16T09:02:38.623Z,23.13
2018-08-16T09:05:07.693Z,23.00
2018-08-16T09:07:36.491Z,22.97
2018-08-16T09:11:15.184Z,23.04
2018-08-16T09:13:57.198Z,22.94
2018-08-16T09:16:28.042Z,23.06
2018-08-16T09:18:57.300Z,23.28
2018-08-16T09:21:32.045Z,23.36
2018-08-16T09:24:00.968Z,23.68
2018-08-16T09:26:36.812Z,24.10
2018-08-16T09:30:18.490Z,24.10
2018-08-16T09:32:58.294Z,24.03
2018-08-16T09:35:28.063Z,23.59
2018-08-16T09:37:57.282Z,23.55
2018-08-16T09:40:27.243Z,23.78
2018-08-16T09:42:56.177Z,23.89
2018-08-16T09:45:35.911Z,23.81
2018-08-16T09:48:15.647Z,23.76
2018-08-16T09:50:44.625Z,23.69
2018-08-16T09:53:13.526Z,23.95
2018-08-16T09:55:42.459Z,23.93
2018-08-16T09:58:11.383Z,24.20
2018-08-16T10:00:46.551Z,24.49
2018-08-16T10:03:24.161Z,24.68
2018-08-16T10:05:53.139Z,24.85
2018-08-16T10:08:21.943Z,24.99
2018-08-16T10:10:52.091Z,24.76
2018-08-16T10:13:20.941Z,24.64
2018-08-16T10:15:49.718Z,24.72
2018-08-16T10:18:18.441Z,24.42
2018-08-16T10:20:49.297Z,24.29
2018-08-16T10:23:18.090Z,24.52
2018-08-16T10:25:46.875Z,24.93
2018-08-16T10:28:15.707Z,25.27
2018-08-16T10:30:44.489Z,25.50
2018-08-16T10:33:13.394Z,25.42
2018-08-16T10:35:42.333Z,25.28
2018-08-16T10:38:11.118Z,25.42
2018-08-16T10:40:39.951Z,25.27
2018-08-16T10:43:08.843Z,25.38
2018-08-16T10:45:37.723Z,25.44
2018-08-16T10:48:06.585Z,25.53
2018-08-16T10:50:35.311Z,25.65
2018-08-16T10:53:04.211Z,25.77
2018-08-16T10:55:33.088Z,26.06
2018-08-16T10:58:01.912Z,26.30
2018-08-16T11:00:30.772Z,26.49
2018-08-16T11:02:59.813Z,26.63
2018-08-16T11:05:28.641Z,26.66
2018-08-16T11:07:57.540Z,26.70
2018-08-16T11:10:26.310Z,26.83
2018-08-16T11:12:56.087Z,26.99
2018-08-16T11:15:24.954Z,27.27
2018-08-16T11:17:53.779Z,27.33
2018-08-16T11:20:22.582Z,27.31
2018-08-16T11:22:51.828Z,27.34
2018-08-16T11:25:20.690Z,27.46
2018-08-16T11:27:49.710Z,27.51
2018-08-16T11:30:18.708Z,27.27
2018-08-16T11:32:51.232Z,26.97
2018-08-16T11:35:20.167Z,26.89
2018-08-16T11:37:49.122Z,26.97
2018-08-16T11:40:17.901Z,27.16
2018-08-16T11:42:47.839Z,27.21
2018-08-16T11:45:16.639Z,27.40
2018-08-16T11:47:45.604Z,27.73
2018-08-16T11:50:14.472Z,27.99
2018-08-16T11:52:44.349Z,28.11
2018-08-16T11:55:13.494Z,28.08
2018-08-16T11:57:42.817Z,28.00
2018-08-16T12:00:11.723Z,27.92
2018-08-16T12:02:42.544Z,27.93
2018-08-16T12:05:11.390Z,27.91
2018-08-16T12:07:40.159Z,28.22
2018-08-16T12:10:09.162Z,28.30
2018-08-16T12:12:38.979Z,28.34
2018-08-16T12:15:08.787Z,28.18
2018-08-16T12:17:37.810Z,28.29
2018-08-16T12:20:07.688Z,28.64
2018-08-16T12:22:38.662Z,28.89
2018-08-16T12:25:08.046Z,28.98
2018-08-16T12:27:36.825Z,29.35
2018-08-16T12:30:07.467Z,29.69
2018-08-16T12:32:37.371Z,30.00
2018-08-16T12:35:07.208Z,30.21
2018-08-16T12:37:36.083Z,30.21
2018-08-16T12:40:06.546Z,30.04
2018-08-16T12:42:35.484Z,29.97
2018-08-16T12:45:04.464Z,29.86
2018-08-16T12:47:33.323Z,29.75
2018-08-16T12:50:02.136Z,29.52
2018-08-16T12:52:31.075Z,29.52
2018-08-16T12:55:00.203Z,30.10
2018-08-16T12:57:29.030Z,31.06
2018-08-16T12:59:57.911Z,32.37
2018-08-16T13:02:26.699Z,34.16
2018-08-16T13:04:57.811Z,36.31
2018-08-16T13:07:26.847Z,37.50
2018-08-16T13:09:55.594Z,36.67
2018-08-16T13:12:24.363Z,37.42
2018-08-16T13:14:53.373Z,37.45
2018-08-16T13:17:22.221Z,36.95
2018-08-16T13:19:50.999Z,36.52
2018-08-16T13:22:20.094Z,35.53
2018-08-16T13:24:49.126Z,35.50
2018-08-16T13:27:18.106Z,35.45
2018-08-16T13:29:47.242Z,35.91
2018-08-16T13:32:16.198Z,35.66
2018-08-16T13:34:45.261Z,35.80
2018-08-16T13:37:14.343Z,35.91
2018-08-16T13:39:43.038Z,35.03
2018-08-16T13:42:11.848Z,34.74
2018-08-16T13:44:41.682Z,35.39
2018-08-16T13:47:10.871Z,36.54
2018-08-16T13:49:39.783Z,36.87
2018-08-16T13:52:09.415Z,36.92
2018-08-16T13:54:39.362Z,35.98
2018-08-16T13:57:08.232Z,35.08
2018-08-16T13:59:37.080Z,35.34
2018-08-16T14:02:06.165Z,37.07
2018-08-16T14:04:35.118Z,38.04
2018-08-16T14:07:04.037Z,37.86
2018-08-16T14:09:32.758Z,37.28
2018-08-16T14:12:01.581Z,37.70
2018-08-16T14:14:32.454Z,37.19
2018-08-16T14:17:01.357Z,37.75
2018-08-16T14:19:30.211Z,38.03
2018-08-16T14:21:59.077Z,38.97
2018-08-16T14:24:29.103Z,40.21
2018-08-16T14:26:57.999Z,40.90
2018-08-16T14:29:26.782Z,39.97
2018-08-16T14:31:55.768Z,38.70
2018-08-16T14:34:26.628Z,38.90
2018-08-16T14:36:55.451Z,40.04
2018-08-16T14:39:24.241Z,40.46
2018-08-16T14:41:53.087Z,38.30
2018-08-16T14:44:22.945Z,38.09
2018-08-16T14:46:51.814Z,37.96
2018-08-16T14:49:20.529Z,37.51
2018-08-16T14:51:49.475Z,37.60
2018-08-16T14:54:18.594Z,38.69
2018-08-16T14:56:47.585Z,37.73
2018-08-16T14:59:17.422Z,36.95
2018-08-16T15:01:46.505Z,36.68
2018-08-16T15:04:15.500Z,36.33
2018-08-16T15:06:46.486Z,35.92
2018-08-16T15:09:15.273Z,36.24
2018-08-16T15:11:44.098Z,37.12
2018-08-16T15:14:13.083Z,38.13
2018-08-16T15:16:41.969Z,38.71
2018-08-16T15:19:12.081Z,37.17
2018-08-16T15:21:41.196Z,35.43
2018-08-16T15:24:09.970Z,35.67
2018-08-16T15:26:39.812Z,36.44
2018-08-16T15:29:10.339Z,37.77
2018-08-16T15:31:39.339Z,38.93
2018-08-16T15:34:08.645Z,39.84
2018-08-16T15:36:37.538Z,40.05
2018-08-16T15:39:08.432Z,40.02
2018-08-16T15:41:37.560Z,39.71
2018-08-16T15:44:06.879Z,39.34
2018-08-16T15:46:35.738Z,39.82
2018-08-16T15:49:04.563Z,39.40
2018-08-16T15:51:34.306Z,39.28
2018-08-16T15:54:03.438Z,39.49
2018-08-16T15:56:32.378Z,39.32
2018-08-16T15:59:01.260Z,37.94
2018-08-16T16:01:30.082Z,36.58
2018-08-16T16:03:59.107Z,36.32
2018-08-16T16:06:28.076Z,37.09
2018-08-16T16:08:56.876Z,37.50
2018-08-16T16:11:25.630Z,37.67
2018-08-16T16:13:54.399Z,37.59
2018-08-16T16:16:23.245Z,37.69
2018-08-16T16:18:52.102Z,38.13
2018-08-16T16:21:21.042Z,38.19
2018-08-16T16:23:50.008Z,36.95
2018-08-16T16:26:18.848Z,36.23
2018-08-16T16:28:48.681Z,36.22
2018-08-16T16:31:17.480Z,35.98
2018-08-16T16:33:46.260Z,36.33
2018-08-16T16:36:15.003Z,35.98
2018-08-16T16:38:44.049Z,36.12
2018-08-16T16:41:12.847Z,36.19
2018-08-16T16:43:42.049Z,35.70
2018-08-16T16:46:10.827Z,34.86
2018-08-16T16:48:39.783Z,34.36
2018-08-16T16:51:08.552Z,33.75
2018-08-16T16:53:37.338Z,33.53
2018-08-16T16:56:06.198Z,33.59
2018-08-16T16:58:35.346Z,33.15
2018-08-16T17:01:04.130Z,32.90
2018-08-16T17:03:33.039Z,32.58
2018-08-16T17:06:03.884Z,31.86
2018-08-16T17:08:32.700Z,31.49
2018-08-16T17:11:01.615Z,30.81
2018-08-16T17:13:30.469Z,30.03
2018-08-16T17:15:59.287Z,29.29
2018-08-16T17:18:28.307Z,28.54
2018-08-16T17:20:57.086Z,27.94
2018-08-16T17:23:26.282Z,27.69
2018-08-16T17:25:55.107Z,27.61
2018-08-16T17:28:24.032Z,27.44
2018-08-16T17:30:52.894Z,27.24
2018-08-16T17:33:21.715Z,27.43
2018-08-16T17:35:50.601Z,27.69
2018-08-16T17:38:19.461Z,27.90
2018-08-16T17:40:48.387Z,27.91
2018-08-16T17:43:17.211Z,27.85
2018-08-16T17:45:46.078Z,27.48
2018-08-16T17:48:16.011Z,27.22
2018-08-16T17:50:44.692Z,26.90
2018-08-16T17:53:13.510Z,26.64
2018-08-16T17:55:42.370Z,26.31
2018-08-16T17:58:11.404Z,25.99
2018-08-16T18:00:40.233Z,25.66
2018-08-16T18:03:09.086Z,25.47
2018-08-16T18:05:37.814Z,25.27
2018-08-16T18:08:06.691Z,25.16
2018-08-16T18:10:35.504Z,25.06
2018-08-16T18:13:04.294Z,24.93
2018-08-16T18:15:33.006Z,24.75
2018-08-16T18:18:01.814Z,24.59
2018-08-16T18:20:30.610Z,24.37
2018-08-16T18:22:59.374Z,24.18
2018-08-16T18:25:28.442Z,24.01
2018-08-16T18:27:57.335Z,23.77
2018-08-16T18:30:26.222Z,23.64
2018-08-16T18:32:54.902Z,23.50
2018-08-16T18:35:23.694Z,23.32
2018-08-16T18:37:52.578Z,23.20
2018-08-16T18:40:21.436Z,23.07
2018-08-16T18:42:50.237Z,22.94
2018-08-16T18:45:18.991Z,22.84
2018-08-16T18:47:47.887Z,22.76
2018-08-16T18:50:17.610Z,22.69
2018-08-16T18:52:46.406Z,22.56
2018-08-16T18:55:15.266Z,22.41
2018-08-16T18:57:45.220Z,22.25
2018-08-16T19:00:14.096Z,22.06
2018-08-16T19:02:42.902Z,21.81
2018-08-16T19:05:11.806Z,21.46
2018-08-16T19:07:40.762Z,21.03
2018-08-16T19:10:10.733Z,20.83
2018-08-16T19:12:39.516Z,20.77
2018-08-16T19:15:08.462Z,20.69
2018-08-16T19:17:37.327Z,20.53
2018-08-16T19:20:06.563Z,20.44
2018-08-16T19:22:35.393Z,20.28
2018-08-16T19:25:04.202Z,20.11
2018-08-16T19:27:32.992Z,20.04
2018-08-16T19:30:01.886Z,19.99
2018-08-16T19:32:30.550Z,20.01
2018-08-16T19:34:59.350Z,19.94
2018-08-16T19:37:28.170Z,19.79
2018-08-16T19:39:57.025Z,19.49
2018-08-16T19:42:25.838Z,19.25
2018-08-16T19:44:54.730Z,19.09
2018-08-16T19:47:23.524Z,18.85
2018-08-16T19:49:52.336Z,18.85
2018-08-16T19:52:21.244Z,18.97
2018-08-16T19:54:50.101Z,19.02
2018-08-16T19:57:18.948Z,18.98
2018-08-16T19:59:47.730Z,18.89
2018-08-16T20:02:16.648Z,18.75
2018-08-16T20:04:45.559Z,18.75
2018-08-16T20:07:15.506Z,18.80
2018-08-16T20:09:44.360Z,18.84
2018-08-16T20:12:13.240Z,18.87
2018-08-16T20:14:42.110Z,18.90
2018-08-16T20:17:11.073Z,18.96
2018-08-16T20:19:39.905Z,18.87
2018-08-16T20:22:17.355Z,18.62
2018-08-16T20:24:46.462Z,18.38
2018-08-16T20:27:15.408Z,18.17
2018-08-16T20:29:44.954Z,18.36
2018-08-16T20:32:13.921Z,18.62
2018-08-16T20:34:42.788Z,18.69
2018-08-16T20:37:11.591Z,18.77
2018-08-16T20:39:40.563Z,18.96
2018-08-16T20:42:09.604Z,19.06
2018-08-16T20:44:38.419Z,19.10
2018-08-16T20:47:07.425Z,19.11
2018-08-16T20:49:36.581Z,19.15
2018-08-16T20:52:05.504Z,19.17
2018-08-16T20:54:34.336Z,19.06
2018-08-16T20:57:03.196Z,18.95
2018-08-16T20:59:32.000Z,18.88
2018-08-16T21:02:00.884Z,18.74
2018-08-16T21:04:29.775Z,18.49
2018-08-16T21:06:58.568Z,18.26
2018-08-16T21:09:27.384Z,18.03
2018-08-16T21:11:56.371Z,17.82
2018-08-16T21:14:25.157Z,17.64
2018-08-16T21:16:53.931Z,17.52
2018-08-16T21:19:22.772Z,17.38
2018-08-16T21:21:51.638Z,17.25
2018-08-16T21:24:20.606Z,17.09
2018-08-16T21:26:49.420Z,16.95
2018-08-16T21:29:18.186Z,16.85
2018-08-16T21:31:46.935Z,16.77
2018-08-16T21:34:15.702Z,16.76
2018-08-16T21:36:44.572Z,16.79
2018-08-16T21:39:13.601Z,16.83
2018-08-16T21:41:42.451Z,16.86
2018-08-16T21:44:11.803Z,16.79
2018-08-16T21:46:40.660Z,16.62
2018-08-16T21:49:09.451Z,16.48
2018-08-16T21:51:38.355Z,16.37
2018-08-16T21:54:07.453Z,16.29
2018-08-16T21:56:36.214Z,16.24
2018-08-16T21:59:05.079Z,16.15
2018-08-16T22:01:34.111Z,16.11
2018-08-16T22:04:02.850Z,16.13
2018-08-16T22:06:42.614Z,16.16
2018-08-16T22:09:13.075Z,16.21
2018-08-16T22:11:41.903Z,16.14
2018-08-16T22:14:10.764Z,16.10
2018-08-16T22:16:39.679Z,16.04
2018-08-16T22:19:08.529Z,15.96
2018-08-16T22:21:37.398Z,15.91
2018-08-16T22:24:06.194Z,15.96
2018-08-16T22:26:34.970Z,16.02
2018-08-16T22:29:03.710Z,16.05
2018-08-16T22:31:32.574Z,16.14
2018-08-16T22:34:01.423Z,16.21
2018-08-16T22:36:30.287Z,16.28
2018-08-16T22:39:00.084Z,16.27
2018-08-16T22:41:28.879Z,16.24
2018-08-16T22:43:57.587Z,16.27
2018-08-16T22:46:26.439Z,16.34
2018-08-16T22:48:55.295Z,16.43
2018-08-16T22:51:24.027Z,16.50
2018-08-16T22:53:52.852Z,16.52
2018-08-16T22:56:21.739Z,16.55
2018-08-16T22:58:50.592Z,16.64
2018-08-16T23:01:19.464Z,16.66
2018-08-16T23:03:48.229Z,16.62
2018-08-16T23:06:17.057Z,16.55
2018-08-16T23:08:46.899Z,16.41
2018-08-16T23:11:15.835Z,16.30
2018-08-16T23:13:44.667Z,16.20
2018-08-16T23:16:13.490Z,16.14
2018-08-16T23:18:42.359Z,16.09
2018-08-16T23:21:11.042Z,16.04
2018-08-16T23:23:39.878Z,15.96
2018-08-16T23:26:08.584Z,15.88
2018-08-16T23:28:37.320Z,15.79
2018-08-16T23:31:06.169Z,15.74
2018-08-16T23:33:35.027Z,15.71
2018-08-16T23:36:03.834Z,15.65
2018-08-16T23:38:32.721Z,15.63
2018-08-16T23:41:01.467Z,15.63
2018-08-16T23:43:30.222Z,15.61
2018-08-16T23:45:59.120Z,15.58
2018-08-16T23:48:31.277Z,15.55
2018-08-16T23:51:00.285Z,15.52
2018-08-16T23:53:29.283Z,15.50
2018-08-16T23:55:58.158Z,15.45
2018-08-16T23:58:26.989Z,15.44
